Vyacheslav Tikhonov — UBSH6 — position and weather

sailwx.info

Track history (hours):
 
Tides and Currents Weather Stations Pressure Air Temp Water Temp Dewpoint Dewpoint Depression Visibility Wind Speed Wind Dir Waves Ship Positions

Vyacheslav Tikhonov

Last reported at 2016-Jul-31 06:33 UTC. Time now 2016-Jul-31 07:21 UTC.
Position N 71°31' E 065°57'.

Length 84 m; draft 6.8 m.

Type: Other ship. MMSI: 273350140.

Date/timePositionNaut miles runAvg speedWind from/ knotsBaromVisibWave heightAir tempDewpointWater temp
2016-Jul-31 06:33N 71°31' E 065°57'5 5.2
2016-Jul-31 05:33N 71°26' E 066°01'5 5.1
2016-Jul-31 04:33N 71°21' E 066°04'4 3.8
2016-Jul-31 03:33N 71°21' E 065°52'5 4.8
2016-Jul-31 02:33N 71°26' E 065°47'5 4.8
2016-Jul-31 01:33N 71°30' E 065°44'5 4.8
2016-Jul-31 00:33N 71°35' E 065°40'10 5.0
2016-Jul-30 22:33N 71°45' E 065°32'5 5.1
2016-Jul-30 21:33N 71°50' E 065°27'5 5.1
2016-Jul-30 20:33N 71°55' E 065°23'5 5.2
2016-Jul-30 19:33N 71°60' E 065°19'9 4.0
2016-Jul-30 17:19N 72°09' E 065°21'4 4.7
2016-Jul-30 16:33N 72°06' E 065°27'5 4.9
2016-Jul-30 15:33N 72°01' E 065°31'5 5.0
2016-Jul-30 14:33N 71°56' E 065°35'5 4.6
2016-Jul-30 13:33N 71°52' E 065°39'5 4.6
2016-Jul-30 12:33N 71°47' E 065°43'5 4.6
2016-Jul-30 11:33N 71°43' E 065°47'5 4.6
2016-Jul-30 10:33N 71°38' E 065°51'5 4.7
2016-Jul-30 09:33N 71°34' E 065°54'4 3.9
2016-Jul-30 08:33N 71°32' E 066°05'5 4.5
2016-Jul-30 07:33N 71°35' E 066°15'5 4.6
2016-Jul-30 06:33N 71°38' E 066°26'4 4.0
2016-Jul-30 05:33N 71°38' E 066°38'4 4.0
2016-Jul-30 04:33N 71°35' E 066°34'4 4.0
2016-Jul-30 03:33N 71°32' E 066°24'4 4.0
2016-Jul-30 02:33N 71°30' E 066°15'4 4.0
2016-Jul-30 01:33N 71°27' E 066°05'5 4.0
2016-Jul-30 00:22N 71°24' E 065°54'3 4.0
2016-Jul-29 23:33N 71°22' E 065°46'4 4.0
2016-Jul-29 22:33N 71°19' E 065°36'4 4.0
2016-Jul-29 21:33N 71°17' E 065°26'4 4.0
2016-Jul-29 20:34N 71°15' E 065°16'4 3.9
2016-Jul-29 19:33N 71°12' E 065°07'4 4.0
2016-Jul-29 18:33N 71°09' E 064°59'4 3.7
2016-Jul-29 17:33N 71°07' E 064°49'4 3.7
2016-Jul-29 16:31N 71°06' E 064°38'5 3.8
2016-Jul-29 15:19N 71°04' E 064°25'3 3.9
2016-Jul-29 14:32N 71°03' E 064°16'4 4.1
2016-Jul-29 13:32N 71°02' E 064°04'5 4.1
2016-Jul-29 12:12N 71°01' E 063°48'4 4.2
2016-Jul-29 11:10N 70°60' E 063°35'3 4.3
2016-Jul-29 10:33N 70°59' E 063°27'4 4.1
2016-Jul-29 09:33N 70°58' E 063°15'4 4.0
2016-Jul-29 08:33N 70°56' E 063°04'4 4.0
2016-Jul-29 07:33N 70°55' E 062°52'4 4.0
2016-Jul-29 06:28N 70°53' E 062°40'4 4.1
2016-Jul-29 05:33N 70°51' E 062°30'4 4.0
2016-Jul-29 04:33N 70°49' E 062°19'4 3.7
2016-Jul-29 03:27N 70°48' E 062°08'3 3.7
2016-Jul-29 02:33N 70°46' E 061°59'4 3.6
2016-Jul-29 01:33N 70°48' E 061°50'4 4.2
2016-Jul-29 00:33N 70°51' E 061°58'4 4.1
2016-Jul-28 23:33N 70°53' E 062°09'4 4.2
2016-Jul-28 22:33N 70°55' E 062°21'4 4.1
2016-Jul-28 21:33N 70°57' E 062°32'4 4.1
2016-Jul-28 20:33N 70°59' E 062°43'4 4.1
2016-Jul-28 19:33N 71°00' E 062°55'4 4.1
2016-Jul-28 18:33N 71°02' E 063°07'4 4.2
2016-Jul-28 17:33N 71°03' E 063°19'4 4.4
2016-Jul-28 16:33N 71°04' E 063°32'4 4.2
2016-Jul-28 15:33N 71°03' E 063°44'4 4.0
2016-Jul-28 14:30N 70°60' E 063°36'4 3.8
2016-Jul-28 13:33N 70°58' E 063°26'5 3.8
2016-Jul-28 12:12N 70°56' E 063°11'7 4.1
2016-Jul-28 10:33N 70°54' E 062°52'5 4.3
2016-Jul-28 09:26N 70°52' E 062°38'8 4.2
2016-Jul-28 07:33N 70°49' E 062°16'7 3.6
2016-Jul-28 05:33N 70°49' E 061°54'4 4.3
2016-Jul-28 04:33N 70°53' E 062°02'4 4.2
2016-Jul-28 03:33N 70°55' E 062°12'4 4.2
2016-Jul-28 02:33N 70°58' E 062°22'4 4.2
2016-Jul-28 01:33N 71°00' E 062°32'4 4.2
2016-Jul-28 00:33N 71°03' E 062°42'4 4.2
2016-Jul-27 23:33N 71°06' E 062°51'4 4.2
2016-Jul-27 22:33N 71°09' E 063°00'4 4.2
2016-Jul-27 21:33N 71°12' E 063°09'35 4.3
2016-Jul-27 13:27N 71°36' E 064°29'4 4.7
2016-Jul-27 12:33N 71°38' E 064°40'5 4.7
2016-Jul-27 11:33N 71°41' E 064°52'5 4.6
2016-Jul-27 10:33N 71°44' E 065°02'5 4.5
2016-Jul-27 09:33N 71°48' E 065°12'4 4.5
2016-Jul-27 08:33N 71°51' E 065°21'4 4.1
2016-Jul-27 07:33N 71°53' E 065°33'4 4.1
2016-Jul-27 06:33N 71°50' E 065°41'4 4.4
2016-Jul-27 05:33N 71°46' E 065°44'5 4.7
2016-Jul-27 04:33N 71°41' E 065°48'5 4.9
2016-Jul-27 03:33N 71°36' E 065°52'5 4.9
2016-Jul-27 02:33N 71°32' E 065°56'5 4.9
2016-Jul-27 01:33N 71°27' E 065°60'5 4.8
2016-Jul-27 00:33N 71°22' E 066°04'4 3.7
2016-Jul-26 23:33N 71°20' E 065°54'5 5.2
2016-Jul-26 22:33N 71°25' E 065°47'5 5.2
2016-Jul-26 21:33N 71°30' E 065°43'5 5.1
2016-Jul-26 20:33N 71°35' E 065°39'5 5.0
2016-Jul-26 19:33N 71°40' E 065°35'5 5.0
2016-Jul-26 18:33N 71°44' E 065°31'5 4.9
2016-Jul-26 17:33N 71°49' E 065°27'5 4.8
2016-Jul-26 16:33N 71°54' E 065°23'5 4.8
2016-Jul-26 15:33N 71°58' E 065°19'10 4.1
2016-Jul-26 13:05N 72°09' E 065°21'2 4.6
2016-Jul-26 12:33N 72°07' E 065°26'4 4.4
2016-Jul-26 11:33N 72°02' E 065°30'5 4.6
2016-Jul-26 10:33N 71°58' E 065°33'5 4.5
2016-Jul-26 09:33N 71°54' E 065°37'5 4.6
2016-Jul-26 08:33N 71°49' E 065°41'5 4.9
2016-Jul-26 07:33N 71°44' E 065°45'5 4.9
2016-Jul-26 06:33N 71°40' E 065°49'5 5.0
2016-Jul-26 05:33N 71°35' E 065°53'5 5.0
2016-Jul-26 04:33N 71°30' E 065°57'5 4.9
2016-Jul-26 03:33N 71°25' E 066°00'5 4.5
2016-Jul-26 02:33N 71°21' E 066°04'4 3.5
2016-Jul-26 01:33N 71°20' E 065°53'5 4.5
2016-Jul-26 00:33N 71°24' E 065°48'5 5.0
2016-Jul-25 23:33N 71°29' E 065°44'5 5.0
2016-Jul-25 22:34N 71°33' E 065°40'5 5.1
2016-Jul-25 21:33N 71°38' E 065°36'5 5.1
2016-Jul-25 20:33N 71°43' E 065°32'5 5.3
2016-Jul-25 19:33N 71°48' E 065°27'5 5.3
2016-Jul-25 18:33N 71°53' E 065°23'5 5.1
2016-Jul-25 17:33N 71°58' E 065°18'9 2.9
2016-Jul-25 14:33N 72°07' E 065°24'5 4.9
2016-Jul-25 13:33N 72°02' E 065°29'5 5.2
2016-Jul-25 12:33N 71°57' E 065°33'5 5.2
2016-Jul-25 11:33N 71°52' E 065°38'5 5.2
2016-Jul-25 10:33N 71°47' E 065°42'5 5.2
2016-Jul-25 09:33N 71°42' E 065°46'5 5.2
2016-Jul-25 08:33N 71°37' E 065°50'5 5.2
2016-Jul-25 07:33N 71°32' E 065°54'5 5.1
2016-Jul-25 06:33N 71°27' E 065°58'5 5.0
2016-Jul-25 05:33N 71°22' E 066°02'4 3.7
2016-Jul-25 04:33N 71°20' E 065°52'5 5.2
2016-Jul-25 03:33N 71°25' E 065°46'5 5.2
2016-Jul-25 02:33N 71°30' E 065°42'5 5.3
2016-Jul-25 01:33N 71°35' E 065°37'5 5.0
2016-Jul-25 00:33N 71°40' E 065°33'5 4.8
2016-Jul-24 23:33N 71°45' E 065°30'5 4.9
2016-Jul-24 22:33N 71°49' E 065°26'5 4.9
2016-Jul-24 21:34N 71°54' E 065°22'5 5.0
2016-Jul-24 20:33N 71°59' E 065°17'8 2.7
2016-Jul-24 17:33N 72°07' E 065°24'4 4.5
2016-Jul-24 16:33N 72°03' E 065°28'5 5.0
2016-Jul-24 15:33N 71°58' E 065°32'5 5.2
2016-Jul-24 14:33N 71°53' E 065°36'5 5.2
2016-Jul-24 13:33N 71°48' E 065°40'5 5.3
2016-Jul-24 12:33N 71°43' E 065°45'5 5.3
2016-Jul-24 11:33N 71°38' E 065°49'5 5.4
2016-Jul-24 10:33N 71°32' E 065°53'5 5.4
2016-Jul-24 09:33N 71°27' E 065°58'5 5.3
2016-Jul-24 08:33N 71°22' E 066°02'4 3.8
2016-Jul-24 07:33N 71°19' E 065°57'4 3.6
2016-Jul-24 06:33N 71°21' E 065°49'4 4.4
2016-Jul-24 05:33N 71°25' E 065°45'5 4.8
2016-Jul-24 04:33N 71°30' E 065°41'5 5.0
2016-Jul-24 03:33N 71°35' E 065°37'5 4.9
2016-Jul-24 02:33N 71°39' E 065°33'5 4.6
2016-Jul-24 01:33N 71°44' E 065°29'4 4.3
2016-Jul-24 00:33N 71°48' E 065°26'4 4.2
2016-Jul-23 23:33N 71°52' E 065°22'4 4.2
2016-Jul-23 22:33N 71°56' E 065°19'5 4.5
2016-Jul-23 21:33N 72°01' E 065°15'8 3.1
2016-Jul-23 19:06N 72°08' E 065°21'3 4.9
2016-Jul-23 18:33N 72°06' E 065°24'5 4.8
2016-Jul-23 17:33N 72°01' E 065°28'5 4.7
2016-Jul-23 16:33N 71°57' E 065°32'5 4.6
2016-Jul-23 15:33N 71°52' E 065°36'5 4.9
2016-Jul-23 14:33N 71°47' E 065°40'5 4.9
2016-Jul-23 13:33N 71°43' E 065°44'5 5.0
2016-Jul-23 12:33N 71°38' E 065°48'5 5.1
2016-Jul-23 11:33N 71°33' E 065°52'5 5.3
2016-Jul-23 10:33N 71°28' E 065°56'5 5.3
2016-Jul-23 09:33N 71°23' E 066°00'4 4.3
2016-Jul-23 08:33N 71°19' E 065°57'4 4.1
2016-Jul-23 07:33N 71°22' E 065°49'5 4.8
2016-Jul-23 06:33N 71°26' E 065°44'11 5.4
2016-Jul-23 04:33N 71°36' E 065°35'6 5.5
2016-Jul-23 03:33N 71°42' E 065°31'5 5.3
2016-Jul-23 02:33N 71°47' E 065°26'5 5.2
2016-Jul-23 01:33N 71°52' E 065°22'5 4.8
2016-Jul-23 00:33N 71°57' E 065°18'5 4.7
2016-Jul-22 23:33N 72°01' E 065°14'7 2.9
2016-Jul-22 21:06N 72°08' E 065°21'3 5.3
2016-Jul-22 20:33N 72°05' E 065°23'5 5.2
2016-Jul-22 19:33N 72°00' E 065°28'5 5.0
2016-Jul-22 18:33N 71°55' E 065°32'5 4.8
2016-Jul-22 17:33N 71°51' E 065°36'5 4.6
2016-Jul-22 16:33N 71°46' E 065°40'4 4.4
2016-Jul-22 15:33N 71°42' E 065°44'4 3.9
2016-Jul-22 14:33N 71°38' E 065°47'4 3.9
2016-Jul-22 13:33N 71°35' E 065°51'4 3.9
2016-Jul-22 12:33N 71°31' E 065°54'5 4.5
2016-Jul-22 11:33N 71°27' E 065°57'5 4.6
2016-Jul-22 10:33N 71°22' E 066°01'4 3.6
2016-Jul-22 09:33N 71°20' E 065°52'5 5.0
2016-Jul-22 08:33N 71°24' E 065°45'5 5.0
2016-Jul-22 07:33N 71°29' E 065°41'10 5.0
2016-Jul-22 05:33N 71°39' E 065°33'5 4.9
2016-Jul-22 04:33N 71°43' E 065°29'5 5.2
2016-Jul-22 03:33N 71°48' E 065°24'5 5.3
2016-Jul-22 02:33N 71°54' E 065°20'5 5.3
2016-Jul-22 01:33N 71°59' E 065°15'8 2.7
2016-Jul-21 22:33N 72°06' E 065°22'5 4.9
2016-Jul-21 21:33N 72°02' E 065°27'5 5.0
2016-Jul-21 20:33N 71°57' E 065°31'5 5.1
2016-Jul-21 19:33N 71°52' E 065°36'5 5.1
2016-Jul-21 18:33N 71°47' E 065°40'5 5.1
2016-Jul-21 17:33N 71°42' E 065°44'5 5.1
2016-Jul-21 16:33N 71°37' E 065°48'5 5.1
2016-Jul-21 15:33N 71°32' E 065°52'5 5.1
2016-Jul-21 14:33N 71°27' E 065°56'5 4.9
2016-Jul-21 13:33N 71°22' E 066°00'5 4.8
2016-Jul-21 12:33N 71°18' E 065°59'4 3.7
2016-Jul-21 11:33N 71°19' E 065°48'5 4.6
2016-Jul-21 10:33N 71°23' E 065°45'5 5.1
2016-Jul-21 09:33N 71°28' E 065°40'5 5.1
2016-Jul-21 08:33N 71°33' E 065°36'5 5.0
2016-Jul-21 07:33N 71°38' E 065°32'5 4.9
2016-Jul-21 06:33N 71°43' E 065°28'5 5.0
2016-Jul-21 05:33N 71°48' E 065°24'  
Track history (hours):
 
Tides and Currents Weather Stations Pressure Air Temp Water Temp Dewpoint Dewpoint Depression Visibility Wind Speed Wind Dir Waves Ship Positions

Vyacheslav Tikhonov

Last reported at 2016-Jul-31 06:33 UTC. Time now 2016-Jul-31 07:21 UTC.
Position N 71°31' E 065°57'.

Length 84 m; draft 6.8 m.

Type: Other ship. MMSI: 273350140.

Date/timePositionNaut miles runAvg speedWind from/ knotsBaromVisibWave heightAir tempDewpointWater temp
2016-Jul-31 06:33N 71°31' E 065°57'5 5.2
2016-Jul-31 05:33N 71°26' E 066°01'5 5.1
2016-Jul-31 04:33N 71°21' E 066°04'4 3.8
2016-Jul-31 03:33N 71°21' E 065°52'5 4.8
2016-Jul-31 02:33N 71°26' E 065°47'5 4.8
2016-Jul-31 01:33N 71°30' E 065°44'5 4.8
2016-Jul-31 00:33N 71°35' E 065°40'10 5.0
2016-Jul-30 22:33N 71°45' E 065°32'5 5.1
2016-Jul-30 21:33N 71°50' E 065°27'5 5.1
2016-Jul-30 20:33N 71°55' E 065°23'5 5.2
2016-Jul-30 19:33N 71°60' E 065°19'9 4.0
2016-Jul-30 17:19N 72°09' E 065°21'4 4.7
2016-Jul-30 16:33N 72°06' E 065°27'5 4.9
2016-Jul-30 15:33N 72°01' E 065°31'5 5.0
2016-Jul-30 14:33N 71°56' E 065°35'5 4.6
2016-Jul-30 13:33N 71°52' E 065°39'5 4.6
2016-Jul-30 12:33N 71°47' E 065°43'5 4.6
2016-Jul-30 11:33N 71°43' E 065°47'5 4.6
2016-Jul-30 10:33N 71°38' E 065°51'5 4.7
2016-Jul-30 09:33N 71°34' E 065°54'4 3.9
2016-Jul-30 08:33N 71°32' E 066°05'5 4.5
2016-Jul-30 07:33N 71°35' E 066°15'5 4.6
2016-Jul-30 06:33N 71°38' E 066°26'4 4.0
2016-Jul-30 05:33N 71°38' E 066°38'4 4.0
2016-Jul-30 04:33N 71°35' E 066°34'4 4.0
2016-Jul-30 03:33N 71°32' E 066°24'4 4.0
2016-Jul-30 02:33N 71°30' E 066°15'4 4.0
2016-Jul-30 01:33N 71°27' E 066°05'5 4.0
2016-Jul-30 00:22N 71°24' E 065°54'3 4.0
2016-Jul-29 23:33N 71°22' E 065°46'4 4.0
2016-Jul-29 22:33N 71°19' E 065°36'4 4.0
2016-Jul-29 21:33N 71°17' E 065°26'4 4.0
2016-Jul-29 20:34N 71°15' E 065°16'4 3.9
2016-Jul-29 19:33N 71°12' E 065°07'4 4.0
2016-Jul-29 18:33N 71°09' E 064°59'4 3.7
2016-Jul-29 17:33N 71°07' E 064°49'4 3.7
2016-Jul-29 16:31N 71°06' E 064°38'5 3.8
2016-Jul-29 15:19N 71°04' E 064°25'3 3.9
2016-Jul-29 14:32N 71°03' E 064°16'4 4.1
2016-Jul-29 13:32N 71°02' E 064°04'5 4.1
2016-Jul-29 12:12N 71°01' E 063°48'4 4.2
2016-Jul-29 11:10N 70°60' E 063°35'3 4.3
2016-Jul-29 10:33N 70°59' E 063°27'4 4.1
2016-Jul-29 09:33N 70°58' E 063°15'4 4.0
2016-Jul-29 08:33N 70°56' E 063°04'4 4.0
2016-Jul-29 07:33N 70°55' E 062°52'4 4.0
2016-Jul-29 06:28N 70°53' E 062°40'4 4.1
2016-Jul-29 05:33N 70°51' E 062°30'4 4.0
2016-Jul-29 04:33N 70°49' E 062°19'4 3.7
2016-Jul-29 03:27N 70°48' E 062°08'3 3.7
2016-Jul-29 02:33N 70°46' E 061°59'4 3.6
2016-Jul-29 01:33N 70°48' E 061°50'4 4.2
2016-Jul-29 00:33N 70°51' E 061°58'4 4.1
2016-Jul-28 23:33N 70°53' E 062°09'4 4.2
2016-Jul-28 22:33N 70°55' E 062°21'4 4.1
2016-Jul-28 21:33N 70°57' E 062°32'4 4.1
2016-Jul-28 20:33N 70°59' E 062°43'4 4.1
2016-Jul-28 19:33N 71°00' E 062°55'4 4.1
2016-Jul-28 18:33N 71°02' E 063°07'4 4.2
2016-Jul-28 17:33N 71°03' E 063°19'4 4.4
2016-Jul-28 16:33N 71°04' E 063°32'4 4.2
2016-Jul-28 15:33N 71°03' E 063°44'4 4.0
2016-Jul-28 14:30N 70°60' E 063°36'4 3.8
2016-Jul-28 13:33N 70°58' E 063°26'5 3.8
2016-Jul-28 12:12N 70°56' E 063°11'7 4.1
2016-Jul-28 10:33N 70°54' E 062°52'5 4.3
2016-Jul-28 09:26N 70°52' E 062°38'8 4.2
2016-Jul-28 07:33N 70°49' E 062°16'7 3.6
2016-Jul-28 05:33N 70°49' E 061°54'4 4.3
2016-Jul-28 04:33N 70°53' E 062°02'4 4.2
2016-Jul-28 03:33N 70°55' E 062°12'4 4.2
2016-Jul-28 02:33N 70°58' E 062°22'4 4.2
2016-Jul-28 01:33N 71°00' E 062°32'4 4.2
2016-Jul-28 00:33N 71°03' E 062°42'4 4.2
2016-Jul-27 23:33N 71°06' E 062°51'4 4.2
2016-Jul-27 22:33N 71°09' E 063°00'4 4.2
2016-Jul-27 21:33N 71°12' E 063°09'35 4.3
2016-Jul-27 13:27N 71°36' E 064°29'4 4.7
2016-Jul-27 12:33N 71°38' E 064°40'5 4.7
2016-Jul-27 11:33N 71°41' E 064°52'5 4.6
2016-Jul-27 10:33N 71°44' E 065°02'5 4.5
2016-Jul-27 09:33N 71°48' E 065°12'4 4.5
2016-Jul-27 08:33N 71°51' E 065°21'4 4.1
2016-Jul-27 07:33N 71°53' E 065°33'4 4.1
2016-Jul-27 06:33N 71°50' E 065°41'4 4.4
2016-Jul-27 05:33N 71°46' E 065°44'5 4.7
2016-Jul-27 04:33N 71°41' E 065°48'5 4.9
2016-Jul-27 03:33N 71°36' E 065°52'5 4.9
2016-Jul-27 02:33N 71°32' E 065°56'5 4.9
2016-Jul-27 01:33N 71°27' E 065°60'5 4.8
2016-Jul-27 00:33N 71°22' E 066°04'4 3.7
2016-Jul-26 23:33N 71°20' E 065°54'5 5.2
2016-Jul-26 22:33N 71°25' E 065°47'5 5.2
2016-Jul-26 21:33N 71°30' E 065°43'5 5.1
2016-Jul-26 20:33N 71°35' E 065°39'5 5.0
2016-Jul-26 19:33N 71°40' E 065°35'5 5.0
2016-Jul-26 18:33N 71°44' E 065°31'5 4.9
2016-Jul-26 17:33N 71°49' E 065°27'5 4.8
2016-Jul-26 16:33N 71°54' E 065°23'5 4.8
2016-Jul-26 15:33N 71°58' E 065°19'10 4.1
2016-Jul-26 13:05N 72°09' E 065°21'2 4.6
2016-Jul-26 12:33N 72°07' E 065°26'4 4.4
2016-Jul-26 11:33N 72°02' E 065°30'5 4.6
2016-Jul-26 10:33N 71°58' E 065°33'5 4.5
2016-Jul-26 09:33N 71°54' E 065°37'5 4.6
2016-Jul-26 08:33N 71°49' E 065°41'5 4.9
2016-Jul-26 07:33N 71°44' E 065°45'5 4.9
2016-Jul-26 06:33N 71°40' E 065°49'5 5.0
2016-Jul-26 05:33N 71°35' E 065°53'5 5.0
2016-Jul-26 04:33N 71°30' E 065°57'5 4.9
2016-Jul-26 03:33N 71°25' E 066°00'5 4.5
2016-Jul-26 02:33N 71°21' E 066°04'4 3.5
2016-Jul-26 01:33N 71°20' E 065°53'5 4.5
2016-Jul-26 00:33N 71°24' E 065°48'5 5.0
2016-Jul-25 23:33N 71°29' E 065°44'5 5.0
2016-Jul-25 22:34N 71°33' E 065°40'5 5.1
2016-Jul-25 21:33N 71°38' E 065°36'5 5.1
2016-Jul-25 20:33N 71°43' E 065°32'5 5.3
2016-Jul-25 19:33N 71°48' E 065°27'5 5.3
2016-Jul-25 18:33N 71°53' E 065°23'5 5.1
2016-Jul-25 17:33N 71°58' E 065°18'9 2.9
2016-Jul-25 14:33N 72°07' E 065°24'5 4.9
2016-Jul-25 13:33N 72°02' E 065°29'5 5.2
2016-Jul-25 12:33N 71°57' E 065°33'5 5.2
2016-Jul-25 11:33N 71°52' E 065°38'5 5.2
2016-Jul-25 10:33N 71°47' E 065°42'5 5.2
2016-Jul-25 09:33N 71°42' E 065°46'5 5.2
2016-Jul-25 08:33N 71°37' E 065°50'5 5.2
2016-Jul-25 07:33N 71°32' E 065°54'5 5.1
2016-Jul-25 06:33N 71°27' E 065°58'5 5.0
2016-Jul-25 05:33N 71°22' E 066°02'4 3.7
2016-Jul-25 04:33N 71°20' E 065°52'5 5.2
2016-Jul-25 03:33N 71°25' E 065°46'5 5.2
2016-Jul-25 02:33N 71°30' E 065°42'5 5.3
2016-Jul-25 01:33N 71°35' E 065°37'5 5.0
2016-Jul-25 00:33N 71°40' E 065°33'5 4.8
2016-Jul-24 23:33N 71°45' E 065°30'5 4.9
2016-Jul-24 22:33N 71°49' E 065°26'5 4.9
2016-Jul-24 21:34N 71°54' E 065°22'5 5.0
2016-Jul-24 20:33N 71°59' E 065°17'8 2.7
2016-Jul-24 17:33N 72°07' E 065°24'4 4.5
2016-Jul-24 16:33N 72°03' E 065°28'5 5.0
2016-Jul-24 15:33N 71°58' E 065°32'5 5.2
2016-Jul-24 14:33N 71°53' E 065°36'5 5.2
2016-Jul-24 13:33N 71°48' E 065°40'5 5.3
2016-Jul-24 12:33N 71°43' E 065°45'5 5.3
2016-Jul-24 11:33N 71°38' E 065°49'5 5.4
2016-Jul-24 10:33N 71°32' E 065°53'5 5.4
2016-Jul-24 09:33N 71°27' E 065°58'5 5.3
2016-Jul-24 08:33N 71°22' E 066°02'4 3.8
2016-Jul-24 07:33N 71°19' E 065°57'4 3.6
2016-Jul-24 06:33N 71°21' E 065°49'4 4.4
2016-Jul-24 05:33N 71°25' E 065°45'5 4.8
2016-Jul-24 04:33N 71°30' E 065°41'5 5.0
2016-Jul-24 03:33N 71°35' E 065°37'5 4.9
2016-Jul-24 02:33N 71°39' E 065°33'5 4.6
2016-Jul-24 01:33N 71°44' E 065°29'4 4.3
2016-Jul-24 00:33N 71°48' E 065°26'4 4.2
2016-Jul-23 23:33N 71°52' E 065°22'4 4.2
2016-Jul-23 22:33N 71°56' E 065°19'5 4.5
2016-Jul-23 21:33N 72°01' E 065°15'8 3.1
2016-Jul-23 19:06N 72°08' E 065°21'3 4.9
2016-Jul-23 18:33N 72°06' E 065°24'5 4.8
2016-Jul-23 17:33N 72°01' E 065°28'5 4.7
2016-Jul-23 16:33N 71°57' E 065°32'5 4.6
2016-Jul-23 15:33N 71°52' E 065°36'5 4.9
2016-Jul-23 14:33N 71°47' E 065°40'5 4.9
2016-Jul-23 13:33N 71°43' E 065°44'5 5.0
2016-Jul-23 12:33N 71°38' E 065°48'5 5.1
2016-Jul-23 11:33N 71°33' E 065°52'5 5.3
2016-Jul-23 10:33N 71°28' E 065°56'5 5.3
2016-Jul-23 09:33N 71°23' E 066°00'4 4.3
2016-Jul-23 08:33N 71°19' E 065°57'4 4.1
2016-Jul-23 07:33N 71°22' E 065°49'5 4.8
2016-Jul-23 06:33N 71°26' E 065°44'11 5.4
2016-Jul-23 04:33N 71°36' E 065°35'6 5.5
2016-Jul-23 03:33N 71°42' E 065°31'5 5.3
2016-Jul-23 02:33N 71°47' E 065°26'5 5.2
2016-Jul-23 01:33N 71°52' E 065°22'5 4.8
2016-Jul-23 00:33N 71°57' E 065°18'5 4.7
2016-Jul-22 23:33N 72°01' E 065°14'7 2.9
2016-Jul-22 21:06N 72°08' E 065°21'3 5.3
2016-Jul-22 20:33N 72°05' E 065°23'5 5.2
2016-Jul-22 19:33N 72°00' E 065°28'5 5.0
2016-Jul-22 18:33N 71°55' E 065°32'5 4.8
2016-Jul-22 17:33N 71°51' E 065°36'5 4.6
2016-Jul-22 16:33N 71°46' E 065°40'4 4.4
2016-Jul-22 15:33N 71°42' E 065°44'4 3.9
2016-Jul-22 14:33N 71°38' E 065°47'4 3.9
2016-Jul-22 13:33N 71°35' E 065°51'4 3.9
2016-Jul-22 12:33N 71°31' E 065°54'5 4.5
2016-Jul-22 11:33N 71°27' E 065°57'5 4.6
2016-Jul-22 10:33N 71°22' E 066°01'4 3.6
2016-Jul-22 09:33N 71°20' E 065°52'5 5.0
2016-Jul-22 08:33N 71°24' E 065°45'5 5.0
2016-Jul-22 07:33N 71°29' E 065°41'10 5.0
2016-Jul-22 05:33N 71°39' E 065°33'5 4.9
2016-Jul-22 04:33N 71°43' E 065°29'5 5.2
2016-Jul-22 03:33N 71°48' E 065°24'5 5.3
2016-Jul-22 02:33N 71°54' E 065°20'5 5.3
2016-Jul-22 01:33N 71°59' E 065°15'8 2.7
2016-Jul-21 22:33N 72°06' E 065°22'5 4.9
2016-Jul-21 21:33N 72°02' E 065°27'5 5.0
2016-Jul-21 20:33N 71°57' E 065°31'5 5.1
2016-Jul-21 19:33N 71°52' E 065°36'5 5.1
2016-Jul-21 18:33N 71°47' E 065°40'5 5.1
2016-Jul-21 17:33N 71°42' E 065°44'5 5.1
2016-Jul-21 16:33N 71°37' E 065°48'5 5.1
2016-Jul-21 15:33N 71°32' E 065°52'5 5.1
2016-Jul-21 14:33N 71°27' E 065°56'5 4.9
2016-Jul-21 13:33N 71°22' E 066°00'5 4.8
2016-Jul-21 12:33N 71°18' E 065°59'4 3.7
2016-Jul-21 11:33N 71°19' E 065°48'5 4.6
2016-Jul-21 10:33N 71°23' E 065°45'5 5.1
2016-Jul-21 09:33N 71°28' E 065°40'5 5.1
2016-Jul-21 08:33N 71°33' E 065°36'5 5.0
2016-Jul-21 07:33N 71°38' E 065°32'5 4.9
2016-Jul-21 06:33N 71°43' E 065°28'5 5.0
2016-Jul-21 05:33N 71°48' E 065°24'  

Dump ship's entire track history